Terminal Aerodrome Forecast
Issued by NWS

Home | Current Version | Previous Version | Text Only | Print | Product List | Glossary On
Versions: 1 2 3 4 5 6 7 8 9 10 11 12 13 14 15 16 17 18 19 20 21
000
FTUS45 KBOU 271734
TAFAPA
TAF
KAPA 271734Z 2718/2818 VRB04KT P6SM SKC
     FM271900 35006KT P6SM SKC
     FM272200 06006KT P6SM FEW220
     FM280000 16006KT P6SM FEW220
     FM280300 19007KT P6SM SKC
     FM281500 25006KT P6SM FEW120=

USA.gov is the U.S. government's official web portal to all federal, state and local government web resources and services.